Kufra, Libya
Current Conditions -  °F | °C
As of 3:00 PM on Tuesday 21 Oct 2014 (Local Time) from HEBL Reporting Station
Clear Clear  
Wind Chill: 84°   Ceiling: Unl
Heat Index: 84°   Visibility: 6mi
Dew Point: 46°   Wind: 9mph
Humidity: 27%   Direction: 70°ENE
Pressure: 29.88"   Gusts: NA
Location:  24.18°N, 23.31°E
Report Text: HEBL 211200Z 07008KT CAVOK 29/08 Q1012 NOSIG
Loading
Personal Weather Stations






























Interactive Weather Map
Tropical Storm Tracking
New forecast layout! Learn more

10-Day Weather Forecast

Advertisements
Track Severe Weather on mobile